Airfield :
LOGIN :

Register | Disclaimer

   EN    FR    IT 

 










Legend :    VFR   Marginal VFR   IFR   Intensive IFR   Very Intensive IFR
Visi :
Ceiling :
>= 8 km
>= 3000ft
5 to 8 km
1000 to 3000 ft
1500m to 5 km
500 to 1000 ft
800 to 1500m
200 to 500 ft
< 800m
< 200 ft
Symbols :   Thunderstorms  Fog  Heavy snow  Heavy precipitations  Wind > 20 kt
SIGMETs :     Misc.  Thunderstorms  Icing  Turbulence  Mountain Waves  Volcanic Ashes






- Airport Elevation : 19 ft
- IATA code : LCY


EGLC - London City

CURRENT METAR :
  • 200050Z AUTO 31005KT 270V010 9999 NCD 06/M01 Q1025

EXPIRED METARs :
  • 200020Z AUTO 32007KT 280V020 9999 NCD 07/M00 Q1025
  • 192350Z AUTO 35007KT 300V020 9999 FEW039 07/01 Q1025
  • 192320Z AUTO 01008KT 320V080 9999 SCT032 07/00 Q1025
  • 192250Z AUTO 35011KT 320V060 9999 FEW032 BKN047 08/02 Q1024
  • 192220Z AUTO 34007KT 310V010 9999 OVC046 08/02 Q1024
  • 192150Z AUTO 36006KT 320V060 9999 BKN046 08/02 Q1024
  • 192120Z AUTO 36007KT 320V050 9999 BKN049 08/01 Q1023
  • 192050Z AUTO 01007KT 330V060 9999 NCD 09/01 Q1023
  • 192020Z AUTO 36006KT 320V050 9999 NCD 09/01 Q1023

Expired Forecast.
ATIS : +44 20 7646 0224



MET'MAP, your aeronautical weather chart ! - Copyright ORBIFLY December 2007 - Disclaimer

ORBIFLY MET'MAP TEAM :

Programming & Development : Alexandra Zaïnal
Original concept : Baudouin d'Aumeries
Technical & hardware support : Manuel Goepfert
Assistance : Marc-Olivier Méhu




SOURCES & CREDITS :

   NOAA